sensor_id;sensor_type;location;lat;lon;timestamp;temperature;humidity
65046;DHT22;54657;52.022;5.534;2023-08-20T00:00:26;20.40;92.00
65046;DHT22;54657;52.022;5.534;2023-08-20T00:03:02;20.30;91.90
65046;DHT22;54657;52.022;5.534;2023-08-20T00:05:29;20.30;92.00
65046;DHT22;54657;52.022;5.534;2023-08-20T00:07:55;20.20;92.10
65046;DHT22;54657;52.022;5.534;2023-08-20T00:10:21;20.30;92.40
65046;DHT22;54657;52.022;5.534;2023-08-20T00:12:46;20.30;92.10
65046;DHT22;54657;52.022;5.534;2023-08-20T00:15:12;20.30;91.90
65046;DHT22;54657;52.022;5.534;2023-08-20T00:17:39;20.40;91.90
65046;DHT22;54657;52.022;5.534;2023-08-20T00:20:07;20.40;91.80
65046;DHT22;54657;52.022;5.534;2023-08-20T00:22:36;20.40;91.80
65046;DHT22;54657;52.022;5.534;2023-08-20T00:25:02;20.40;91.80
65046;DHT22;54657;52.022;5.534;2023-08-20T00:27:29;20.40;91.70
65046;DHT22;54657;52.022;5.534;2023-08-20T00:29:55;20.40;91.70
65046;DHT22;54657;52.022;5.534;2023-08-20T00:32:20;20.40;91.70
65046;DHT22;54657;52.022;5.534;2023-08-20T00:34:46;20.40;91.70
65046;DHT22;54657;52.022;5.534;2023-08-20T00:37:11;20.40;91.70
65046;DHT22;54657;52.022;5.534;2023-08-20T00:39:37;20.40;91.70
65046;DHT22;54657;52.022;5.534;2023-08-20T00:42:03;20.40;91.70
65046;DHT22;54657;52.022;5.534;2023-08-20T00:44:30;20.40;91.70
65046;DHT22;54657;52.022;5.534;2023-08-20T00:46:55;20.30;91.70
65046;DHT22;54657;52.022;5.534;2023-08-20T00:49:21;20.30;91.70
65046;DHT22;54657;52.022;5.534;2023-08-20T00:51:47;20.30;91.80
65046;DHT22;54657;52.022;5.534;2023-08-20T00:54:13;20.20;91.90
65046;DHT22;54657;52.022;5.534;2023-08-20T00:56:38;20.20;91.90
65046;DHT22;54657;52.022;5.534;2023-08-20T00:59:05;20.20;91.90
65046;DHT22;54657;52.022;5.534;2023-08-20T01:01:31;20.20;91.90
65046;DHT22;54657;52.022;5.534;2023-08-20T01:03:57;20.20;91.90
65046;DHT22;54657;52.022;5.534;2023-08-20T01:06:44;20.10;92.00
65046;DHT22;54657;52.022;5.534;2023-08-20T01:09:42;20.10;92.30
65046;DHT22;54657;52.022;5.534;2023-08-20T01:12:10;20.00;92.30
65046;DHT22;54657;52.022;5.534;2023-08-20T01:14:36;20.10;92.20
65046;DHT22;54657;52.022;5.534;2023-08-20T01:17:02;20.10;92.10
65046;DHT22;54657;52.022;5.534;2023-08-20T01:19:28;20.00;92.10
65046;DHT22;54657;52.022;5.534;2023-08-20T01:24:59;20.10;92.20
65046;DHT22;54657;52.022;5.534;2023-08-20T01:27:52;20.10;92.20
65046;DHT22;54657;52.022;5.534;2023-08-20T01:30:24;20.10;92.20
65046;DHT22;54657;52.022;5.534;2023-08-20T01:32:51;19.90;92.30
65046;DHT22;54657;52.022;5.534;2023-08-20T01:35:18;19.90;92.30
65046;DHT22;54657;52.022;5.534;2023-08-20T01:37:44;19.90;92.40
65046;DHT22;54657;52.022;5.534;2023-08-20T01:40:10;19.80;92.50
65046;DHT22;54657;52.022;5.534;2023-08-20T01:42:39;19.90;92.50
65046;DHT22;54657;52.022;5.534;2023-08-20T01:45:06;19.90;92.50
65046;DHT22;54657;52.022;5.534;2023-08-20T01:47:33;19.90;92.50
65046;DHT22;54657;52.022;5.534;2023-08-20T01:49:58;19.90;92.50
65046;DHT22;54657;52.022;5.534;2023-08-20T01:52:24;19.90;92.50
65046;DHT22;54657;52.022;5.534;2023-08-20T01:54:50;19.90;92.50
65046;DHT22;54657;52.022;5.534;2023-08-20T01:57:16;19.90;92.50
65046;DHT22;54657;52.022;5.534;2023-08-20T01:59:42;19.80;92.60
65046;DHT22;54657;52.022;5.534;2023-08-20T02:02:08;19.90;92.60
65046;DHT22;54657;52.022;5.534;2023-08-20T02:04:33;19.90;92.50
65046;DHT22;54657;52.022;5.534;2023-08-20T02:06:59;19.90;92.50
65046;DHT22;54657;52.022;5.534;2023-08-20T02:09:25;20.00;92.60
65046;DHT22;54657;52.022;5.534;2023-08-20T02:11:51;20.00;92.40
65046;DHT22;54657;52.022;5.534;2023-08-20T02:14:17;19.90;92.40
65046;DHT22;54657;52.022;5.534;2023-08-20T02:16:43;19.90;92.50
65046;DHT22;54657;52.022;5.534;2023-08-20T02:19:08;19.90;92.60
65046;DHT22;54657;52.022;5.534;2023-08-20T02:21:34;19.90;92.50
65046;DHT22;54657;52.022;5.534;2023-08-20T02:24:00;19.90;92.60
65046;DHT22;54657;52.022;5.534;2023-08-20T02:26:26;19.80;92.60
65046;DHT22;54657;52.022;5.534;2023-08-20T02:28:52;19.90;92.50
65046;DHT22;54657;52.022;5.534;2023-08-20T02:31:17;19.80;92.50
65046;DHT22;54657;52.022;5.534;2023-08-20T02:33:43;19.80;92.50
65046;DHT22;54657;52.022;5.534;2023-08-20T02:36:08;19.80;92.60
65046;DHT22;54657;52.022;5.534;2023-08-20T02:38:34;19.70;92.60
65046;DHT22;54657;52.022;5.534;2023-08-20T02:41:01;19.70;92.60
65046;DHT22;54657;52.022;5.534;2023-08-20T02:43:28;19.70;92.60
65046;DHT22;54657;52.022;5.534;2023-08-20T02:45:54;19.70;92.70
65046;DHT22;54657;52.022;5.534;2023-08-20T02:48:20;19.70;92.70
65046;DHT22;54657;52.022;5.534;2023-08-20T02:50:46;19.70;92.70
65046;DHT22;54657;52.022;5.534;2023-08-20T02:53:11;19.70;92.60
65046;DHT22;54657;52.022;5.534;2023-08-20T02:55:37;19.70;92.60
65046;DHT22;54657;52.022;5.534;2023-08-20T02:58:03;19.60;92.70
65046;DHT22;54657;52.022;5.534;2023-08-20T03:00:30;19.60;93.00
65046;DHT22;54657;52.022;5.534;2023-08-20T03:02:56;19.60;92.80
65046;DHT22;54657;52.022;5.534;2023-08-20T03:05:22;19.60;92.80
65046;DHT22;54657;52.022;5.534;2023-08-20T03:07:47;19.60;92.70
65046;DHT22;54657;52.022;5.534;2023-08-20T03:10:13;19.60;92.60
65046;DHT22;54657;52.022;5.534;2023-08-20T03:12:38;19.60;92.60
65046;DHT22;54657;52.022;5.534;2023-08-20T03:15:04;19.60;92.60
65046;DHT22;54657;52.022;5.534;2023-08-20T03:17:30;19.60;92.60
65046;DHT22;54657;52.022;5.534;2023-08-20T03:19:57;19.50;92.70
65046;DHT22;54657;52.022;5.534;2023-08-20T03:22:24;19.50;92.70
65046;DHT22;54657;52.022;5.534;2023-08-20T03:24:50;19.50;92.70
65046;DHT22;54657;52.022;5.534;2023-08-20T03:27:17;19.50;92.70
65046;DHT22;54657;52.022;5.534;2023-08-20T03:29:43;19.50;92.70
65046;DHT22;54657;52.022;5.534;2023-08-20T03:32:09;19.40;92.70
65046;DHT22;54657;52.022;5.534;2023-08-20T03:34:35;19.40;92.70
65046;DHT22;54657;52.022;5.534;2023-08-20T03:37:01;19.40;92.70
65046;DHT22;54657;52.022;5.534;2023-08-20T03:39:26;19.40;93.10
65046;DHT22;54657;52.022;5.534;2023-08-20T03:41:52;19.40;92.70
65046;DHT22;54657;52.022;5.534;2023-08-20T03:44:18;19.40;92.60
65046;DHT22;54657;52.022;5.534;2023-08-20T03:46:44;19.40;92.70
65046;DHT22;54657;52.022;5.534;2023-08-20T03:49:09;19.30;92.80
65046;DHT22;54657;52.022;5.534;2023-08-20T03:51:35;19.20;93.00
65046;DHT22;54657;52.022;5.534;2023-08-20T03:54:01;19.10;93.20
65046;DHT22;54657;52.022;5.534;2023-08-20T03:56:27;19.10;93.20
65046;DHT22;54657;52.022;5.534;2023-08-20T03:58:52;19.10;93.20
65046;DHT22;54657;52.022;5.534;2023-08-20T04:01:18;19.20;93.10
65046;DHT22;54657;52.022;5.534;2023-08-20T04:03:45;19.20;93.10
65046;DHT22;54657;52.022;5.534;2023-08-20T04:06:11;19.20;93.00
65046;DHT22;54657;52.022;5.534;2023-08-20T04:08:37;19.10;93.00
65046;DHT22;54657;52.022;5.534;2023-08-20T04:11:02;19.10;93.10
65046;DHT22;54657;52.022;5.534;2023-08-20T04:13:29;19.10;93.10
65046;DHT22;54657;52.022;5.534;2023-08-20T04:15:55;19.10;93.10
65046;DHT22;54657;52.022;5.534;2023-08-20T04:18:20;19.10;93.20
65046;DHT22;54657;52.022;5.534;2023-08-20T04:20:46;19.00;93.30
65046;DHT22;54657;52.022;5.534;2023-08-20T04:23:12;19.00;93.40
65046;DHT22;54657;52.022;5.534;2023-08-20T04:25:37;19.00;93.50
65046;DHT22;54657;52.022;5.534;2023-08-20T04:28:03;19.00;93.40
65046;DHT22;54657;52.022;5.534;2023-08-20T04:30:28;19.10;93.40
65046;DHT22;54657;52.022;5.534;2023-08-20T04:32:54;19.00;93.40
65046;DHT22;54657;52.022;5.534;2023-08-20T04:35:20;19.00;93.40
65046;DHT22;54657;52.022;5.534;2023-08-20T04:37:46;19.00;93.50
65046;DHT22;54657;52.022;5.534;2023-08-20T04:40:11;18.90;93.60
65046;DHT22;54657;52.022;5.534;2023-08-20T04:42:37;19.00;93.80
65046;DHT22;54657;52.022;5.534;2023-08-20T04:45:03;19.10;93.50
65046;DHT22;54657;52.022;5.534;2023-08-20T04:47:29;19.10;93.40
65046;DHT22;54657;52.022;5.534;2023-08-20T04:49:55;19.10;93.40
65046;DHT22;54657;52.022;5.534;2023-08-20T04:52:20;19.10;93.40
65046;DHT22;54657;52.022;5.534;2023-08-20T04:54:47;19.10;93.70
65046;DHT22;54657;52.022;5.534;2023-08-20T04:57:13;19.20;93.30
65046;DHT22;54657;52.022;5.534;2023-08-20T04:59:38;19.20;93.30
65046;DHT22;54657;52.022;5.534;2023-08-20T05:02:04;19.20;93.40
65046;DHT22;54657;52.022;5.534;2023-08-20T05:04:29;19.20;93.40
65046;DHT22;54657;52.022;5.534;2023-08-20T05:06:55;19.20;93.40
65046;DHT22;54657;52.022;5.534;2023-08-20T05:09:22;19.30;93.30
65046;DHT22;54657;52.022;5.534;2023-08-20T05:11:47;19.40;93.30
65046;DHT22;54657;52.022;5.534;2023-08-20T05:14:13;19.40;93.20
65046;DHT22;54657;52.022;5.534;2023-08-20T05:16:38;19.50;93.20
65046;DHT22;54657;52.022;5.534;2023-08-20T05:19:04;19.60;93.20
65046;DHT22;54657;52.022;5.534;2023-08-20T05:21:30;19.60;93.10
65046;DHT22;54657;52.022;5.534;2023-08-20T05:23:55;19.60;93.10
65046;DHT22;54657;52.022;5.534;2023-08-20T05:26:22;19.60;93.20
65046;DHT22;54657;52.022;5.534;2023-08-20T05:28:47;19.60;93.30
65046;DHT22;54657;52.022;5.534;2023-08-20T05:31:13;19.70;93.30
65046;DHT22;54657;52.022;5.534;2023-08-20T05:33:41;19.70;93.20
65046;DHT22;54657;52.022;5.534;2023-08-20T05:36:07;19.70;93.20
65046;DHT22;54657;52.022;5.534;2023-08-20T05:38:32;19.80;93.30
65046;DHT22;54657;52.022;5.534;2023-08-20T05:40:58;19.90;93.20
65046;DHT22;54657;52.022;5.534;2023-08-20T05:43:23;20.00;93.10
65046;DHT22;54657;52.022;5.534;2023-08-20T05:45:49;20.00;93.10
65046;DHT22;54657;52.022;5.534;2023-08-20T05:48:15;20.00;93.00
65046;DHT22;54657;52.022;5.534;2023-08-20T05:50:40;20.10;93.00
65046;DHT22;54657;52.022;5.534;2023-08-20T05:53:06;20.20;92.90
65046;DHT22;54657;52.022;5.534;2023-08-20T05:55:32;20.20;92.90
65046;DHT22;54657;52.022;5.534;2023-08-20T05:57:57;20.30;92.90
65046;DHT22;54657;52.022;5.534;2023-08-20T06:00:23;20.30;92.90
65046;DHT22;54657;52.022;5.534;2023-08-20T06:02:48;20.30;92.80
65046;DHT22;54657;52.022;5.534;2023-08-20T06:05:14;20.40;92.80
65046;DHT22;54657;52.022;5.534;2023-08-20T06:07:40;20.40;92.80
65046;DHT22;54657;52.022;5.534;2023-08-20T06:10:06;20.40;92.80
65046;DHT22;54657;52.022;5.534;2023-08-20T06:12:33;20.40;92.80
65046;DHT22;54657;52.022;5.534;2023-08-20T06:14:59;20.40;92.80
65046;DHT22;54657;52.022;5.534;2023-08-20T06:17:24;20.50;92.80
65046;DHT22;54657;52.022;5.534;2023-08-20T06:19:50;20.40;92.80
65046;DHT22;54657;52.022;5.534;2023-08-20T06:22:15;20.50;92.80
65046;DHT22;54657;52.022;5.534;2023-08-20T06:24:41;20.50;92.80
65046;DHT22;54657;52.022;5.534;2023-08-20T06:27:07;20.50;92.80
65046;DHT22;54657;52.022;5.534;2023-08-20T06:29:32;20.50;92.80
65046;DHT22;54657;52.022;5.534;2023-08-20T06:31:58;20.50;92.90
65046;DHT22;54657;52.022;5.534;2023-08-20T06:34:23;20.50;92.90
65046;DHT22;54657;52.022;5.534;2023-08-20T06:36:49;20.50;92.90
65046;DHT22;54657;52.022;5.534;2023-08-20T06:39:15;20.60;92.90
65046;DHT22;54657;52.022;5.534;2023-08-20T06:41:41;20.60;92.80
65046;DHT22;54657;52.022;5.534;2023-08-20T06:44:07;20.50;92.80
65046;DHT22;54657;52.022;5.534;2023-08-20T06:46:32;20.60;92.90
65046;DHT22;54657;52.022;5.534;2023-08-20T06:48:58;20.60;92.90
65046;DHT22;54657;52.022;5.534;2023-08-20T06:51:24;20.60;92.90
65046;DHT22;54657;52.022;5.534;2023-08-20T06:53:50;20.60;92.90
65046;DHT22;54657;52.022;5.534;2023-08-20T06:56:16;20.70;92.90
65046;DHT22;54657;52.022;5.534;2023-08-20T06:58:42;20.70;92.80
65046;DHT22;54657;52.022;5.534;2023-08-20T07:01:08;20.70;92.90
65046;DHT22;54657;52.022;5.534;2023-08-20T07:03:39;20.70;92.80
65046;DHT22;54657;52.022;5.534;2023-08-20T07:06:06;20.70;92.90
65046;DHT22;54657;52.022;5.534;2023-08-20T07:08:32;20.80;92.90
65046;DHT22;54657;52.022;5.534;2023-08-20T07:10:58;20.80;92.90
65046;DHT22;54657;52.022;5.534;2023-08-20T07:13:23;20.90;92.80
65046;DHT22;54657;52.022;5.534;2023-08-20T07:15:49;20.90;92.80
65046;DHT22;54657;52.022;5.534;2023-08-20T07:18:15;21.00;92.80
65046;DHT22;54657;52.022;5.534;2023-08-20T07:20:44;21.10;92.70
65046;DHT22;54657;52.022;5.534;2023-08-20T07:23:10;21.10;92.70
65046;DHT22;54657;52.022;5.534;2023-08-20T07:25:37;21.30;92.60
65046;DHT22;54657;52.022;5.534;2023-08-20T07:28:06;21.50;92.40
65046;DHT22;54657;52.022;5.534;2023-08-20T07:30:32;21.50;92.30
65046;DHT22;54657;52.022;5.534;2023-08-20T07:32:58;21.60;92.20
65046;DHT22;54657;52.022;5.534;2023-08-20T07:35:24;21.70;92.10
65046;DHT22;54657;52.022;5.534;2023-08-20T07:37:50;21.80;92.00
65046;DHT22;54657;52.022;5.534;2023-08-20T07:40:16;21.90;92.20
65046;DHT22;54657;52.022;5.534;2023-08-20T07:42:41;22.00;91.80
65046;DHT22;54657;52.022;5.534;2023-08-20T07:45:08;22.20;91.80
65046;DHT22;54657;52.022;5.534;2023-08-20T07:47:35;22.20;91.60
65046;DHT22;54657;52.022;5.534;2023-08-20T07:50:01;22.30;91.60
65046;DHT22;54657;52.022;5.534;2023-08-20T07:52:26;22.40;91.50
65046;DHT22;54657;52.022;5.534;2023-08-20T07:54:52;22.40;91.40
65046;DHT22;54657;52.022;5.534;2023-08-20T07:57:18;22.50;91.30
65046;DHT22;54657;52.022;5.534;2023-08-20T07:59:47;22.60;91.20
65046;DHT22;54657;52.022;5.534;2023-08-20T08:02:15;22.60;91.10
65046;DHT22;54657;52.022;5.534;2023-08-20T08:05:02;22.60;91.00
65046;DHT22;54657;52.022;5.534;2023-08-20T08:07:38;22.70;90.70
65046;DHT22;54657;52.022;5.534;2023-08-20T08:12:52;22.80;91.00
65046;DHT22;54657;52.022;5.534;2023-08-20T08:15:56;22.80;90.90
65046;DHT22;54657;52.022;5.534;2023-08-20T08:18:21;22.90;90.30
65046;DHT22;54657;52.022;5.534;2023-08-20T08:20:47;22.90;90.80
65046;DHT22;54657;52.022;5.534;2023-08-20T08:23:13;22.90;90.80
65046;DHT22;54657;52.022;5.534;2023-08-20T08:25:38;23.00;90.80
65046;DHT22;54657;52.022;5.534;2023-08-20T08:28:05;23.00;90.80
65046;DHT22;54657;52.022;5.534;2023-08-20T08:30:33;23.10;90.70
65046;DHT22;54657;52.022;5.534;2023-08-20T08:33:01;23.20;90.60
65046;DHT22;54657;52.022;5.534;2023-08-20T08:35:27;23.20;90.30
65046;DHT22;54657;52.022;5.534;2023-08-20T08:37:52;23.20;90.40
65046;DHT22;54657;52.022;5.534;2023-08-20T08:40:18;23.20;90.20
65046;DHT22;54657;52.022;5.534;2023-08-20T08:42:48;23.30;90.20
65046;DHT22;54657;52.022;5.534;2023-08-20T08:45:18;23.30;89.70
65046;DHT22;54657;52.022;5.534;2023-08-20T08:47:44;23.30;89.60
65046;DHT22;54657;52.022;5.534;2023-08-20T08:50:09;23.40;89.70
65046;DHT22;54657;52.022;5.534;2023-08-20T08:52:37;23.40;89.30
65046;DHT22;54657;52.022;5.534;2023-08-20T08:55:04;23.50;89.10
65046;DHT22;54657;52.022;5.534;2023-08-20T08:57:31;23.50;88.70
65046;DHT22;54657;52.022;5.534;2023-08-20T08:59:56;23.60;88.50
65046;DHT22;54657;52.022;5.534;2023-08-20T09:02:22;23.60;88.10
65046;DHT22;54657;52.022;5.534;2023-08-20T09:04:48;23.70;88.20
65046;DHT22;54657;52.022;5.534;2023-08-20T09:07:15;23.80;87.80
65046;DHT22;54657;52.022;5.534;2023-08-20T09:09:45;23.90;87.40
65046;DHT22;54657;52.022;5.534;2023-08-20T09:12:17;23.90;86.70
65046;DHT22;54657;52.022;5.534;2023-08-20T09:14:48;23.90;86.60
65046;DHT22;54657;52.022;5.534;2023-08-20T09:17:14;24.00;86.80
65046;DHT22;54657;52.022;5.534;2023-08-20T09:19:42;24.10;86.70
65046;DHT22;54657;52.022;5.534;2023-08-20T09:22:08;24.30;86.40
65046;DHT22;54657;52.022;5.534;2023-08-20T09:24:41;24.30;86.10
65046;DHT22;54657;52.022;5.534;2023-08-20T09:27:11;24.30;86.20
65046;DHT22;54657;52.022;5.534;2023-08-20T09:29:51;24.30;85.70
65046;DHT22;54657;52.022;5.534;2023-08-20T09:32:25;24.40;84.30
65046;DHT22;54657;52.022;5.534;2023-08-20T09:34:52;24.50;85.90
65046;DHT22;54657;52.022;5.534;2023-08-20T09:37:27;24.60;85.70
65046;DHT22;54657;52.022;5.534;2023-08-20T09:39:52;24.70;84.30
65046;DHT22;54657;52.022;5.534;2023-08-20T09:42:21;24.70;84.60
65046;DHT22;54657;52.022;5.534;2023-08-20T09:48:12;24.80;83.60
65046;DHT22;54657;52.022;5.534;2023-08-20T09:51:03;24.80;82.80
65046;DHT22;54657;52.022;5.534;2023-08-20T09:54:00;24.80;81.40
65046;DHT22;54657;52.022;5.534;2023-08-20T09:56:29;24.90;82.40
65046;DHT22;54657;52.022;5.534;2023-08-20T09:58:57;24.90;83.60
65046;DHT22;54657;52.022;5.534;2023-08-20T10:01:24;25.00;83.30
65046;DHT22;54657;52.022;5.534;2023-08-20T10:03:50;25.10;83.40
65046;DHT22;54657;52.022;5.534;2023-08-20T10:06:16;25.20;83.00
65046;DHT22;54657;52.022;5.534;2023-08-20T10:08:43;25.20;82.80
65046;DHT22;54657;52.022;5.534;2023-08-20T10:11:08;25.30;82.50
65046;DHT22;54657;52.022;5.534;2023-08-20T10:13:34;25.30;82.00
65046;DHT22;54657;52.022;5.534;2023-08-20T10:16:00;25.30;82.00
65046;DHT22;54657;52.022;5.534;2023-08-20T10:18:26;25.40;82.00
65046;DHT22;54657;52.022;5.534;2023-08-20T10:20:52;25.40;81.40
65046;DHT22;54657;52.022;5.534;2023-08-20T10:23:22;25.40;81.00
65046;DHT22;54657;52.022;5.534;2023-08-20T10:25:52;25.40;80.20
65046;DHT22;54657;52.022;5.534;2023-08-20T10:28:22;25.40;80.30
65046;DHT22;54657;52.022;5.534;2023-08-20T10:33:37;25.60;75.90
65046;DHT22;54657;52.022;5.534;2023-08-20T10:36:13;25.50;79.30
65046;DHT22;54657;52.022;5.534;2023-08-20T10:38:39;25.40;78.40
65046;DHT22;54657;52.022;5.534;2023-08-20T10:41:08;25.50;80.20
65046;DHT22;54657;52.022;5.534;2023-08-20T10:43:49;25.60;79.50
65046;DHT22;54657;52.022;5.534;2023-08-20T10:46:22;25.70;77.70
65046;DHT22;54657;52.022;5.534;2023-08-20T10:48:51;25.80;77.80
65046;DHT22;54657;52.022;5.534;2023-08-20T10:51:32;25.90;78.80
65046;DHT22;54657;52.022;5.534;2023-08-20T10:56:45;26.00;77.50
65046;DHT22;54657;52.022;5.534;2023-08-20T10:59:21;26.00;73.20
65046;DHT22;54657;52.022;5.534;2023-08-20T11:01:48;26.10;75.90
65046;DHT22;54657;52.022;5.534;2023-08-20T11:04:19;26.10;76.30
65046;DHT22;54657;52.022;5.534;2023-08-20T11:06:46;26.20;75.60
65046;DHT22;54657;52.022;5.534;2023-08-20T11:09:14;26.20;75.80
65046;DHT22;54657;52.022;5.534;2023-08-20T11:11:41;26.30;75.50
65046;DHT22;54657;52.022;5.534;2023-08-20T11:14:09;26.30;75.50
65046;DHT22;54657;52.022;5.534;2023-08-20T11:16:37;26.30;75.20
65046;DHT22;54657;52.022;5.534;2023-08-20T11:19:03;26.30;75.10
65046;DHT22;54657;52.022;5.534;2023-08-20T11:21:34;26.40;74.60
65046;DHT22;54657;52.022;5.534;2023-08-20T11:24:00;26.50;74.40
65046;DHT22;54657;52.022;5.534;2023-08-20T11:26:26;26.50;74.20
65046;DHT22;54657;52.022;5.534;2023-08-20T11:28:52;26.50;73.80
65046;DHT22;54657;52.022;5.534;2023-08-20T11:31:17;26.60;74.30
65046;DHT22;54657;52.022;5.534;2023-08-20T11:33:43;26.60;73.20
65046;DHT22;54657;52.022;5.534;2023-08-20T11:36:09;26.70;73.20
65046;DHT22;54657;52.022;5.534;2023-08-20T11:38:35;26.80;72.60
65046;DHT22;54657;52.022;5.534;2023-08-20T11:41:02;26.80;72.50
65046;DHT22;54657;52.022;5.534;2023-08-20T11:43:28;26.90;72.30
65046;DHT22;54657;52.022;5.534;2023-08-20T11:45:55;26.90;71.70
65046;DHT22;54657;52.022;5.534;2023-08-20T11:48:22;27.00;72.40
65046;DHT22;54657;52.022;5.534;2023-08-20T11:50:49;27.00;71.00
65046;DHT22;54657;52.022;5.534;2023-08-20T11:53:15;27.00;71.00
65046;DHT22;54657;52.022;5.534;2023-08-20T11:55:40;27.00;70.40
65046;DHT22;54657;52.022;5.534;2023-08-20T11:58:11;27.00;70.60
65046;DHT22;54657;52.022;5.534;2023-08-20T12:00:36;27.00;69.30
65046;DHT22;54657;52.022;5.534;2023-08-20T12:03:02;27.00;70.10
65046;DHT22;54657;52.022;5.534;2023-08-20T12:05:29;27.10;70.30
65046;DHT22;54657;52.022;5.534;2023-08-20T12:08:00;27.10;69.80
65046;DHT22;54657;52.022;5.534;2023-08-20T12:10:28;27.10;69.00
65046;DHT22;54657;52.022;5.534;2023-08-20T12:12:55;27.20;70.00
65046;DHT22;54657;52.022;5.534;2023-08-20T12:15:21;27.20;69.90
65046;DHT22;54657;52.022;5.534;2023-08-20T12:18:01;27.20;69.10
65046;DHT22;54657;52.022;5.534;2023-08-20T12:20:36;27.20;65.80
65046;DHT22;54657;52.022;5.534;2023-08-20T12:23:05;27.20;65.90
65046;DHT22;54657;52.022;5.534;2023-08-20T12:25:32;27.30;68.60
65046;DHT22;54657;52.022;5.534;2023-08-20T12:28:00;27.30;68.60
65046;DHT22;54657;52.022;5.534;2023-08-20T12:30:25;27.30;68.20
65046;DHT22;54657;52.022;5.534;2023-08-20T12:32:51;27.40;68.00
65046;DHT22;54657;52.022;5.534;2023-08-20T12:35:17;27.40;67.80
65046;DHT22;54657;52.022;5.534;2023-08-20T12:37:42;27.50;67.50
65046;DHT22;54657;52.022;5.534;2023-08-20T12:40:08;27.40;67.20
65046;DHT22;54657;52.022;5.534;2023-08-20T12:42:37;27.50;67.50
65046;DHT22;54657;52.022;5.534;2023-08-20T12:45:05;27.50;67.00
65046;DHT22;54657;52.022;5.534;2023-08-20T12:47:31;27.50;66.50
65046;DHT22;54657;52.022;5.534;2023-08-20T12:49:56;27.60;66.90
65046;DHT22;54657;52.022;5.534;2023-08-20T12:52:22;27.60;66.60
65046;DHT22;54657;52.022;5.534;2023-08-20T12:54:47;27.60;66.50
65046;DHT22;54657;52.022;5.534;2023-08-20T12:57:13;27.50;66.30
65046;DHT22;54657;52.022;5.534;2023-08-20T12:59:39;27.60;66.30
65046;DHT22;54657;52.022;5.534;2023-08-20T13:02:05;27.50;65.60
65046;DHT22;54657;52.022;5.534;2023-08-20T13:04:31;27.60;65.70
65046;DHT22;54657;52.022;5.534;2023-08-20T13:06:57;27.60;65.60
65046;DHT22;54657;52.022;5.534;2023-08-20T13:09:23;27.70;65.80
65046;DHT22;54657;52.022;5.534;2023-08-20T13:11:49;27.70;65.60
65046;DHT22;54657;52.022;5.534;2023-08-20T13:14:17;27.70;65.50
65046;DHT22;54657;52.022;5.534;2023-08-20T13:16:43;27.80;65.10
65046;DHT22;54657;52.022;5.534;2023-08-20T13:19:09;27.80;65.00
65046;DHT22;54657;52.022;5.534;2023-08-20T13:21:35;27.80;64.80
65046;DHT22;54657;52.022;5.534;2023-08-20T13:24:00;27.80;64.80
65046;DHT22;54657;52.022;5.534;2023-08-20T13:26:26;27.80;64.60
65046;DHT22;54657;52.022;5.534;2023-08-20T13:28:52;27.80;64.40
65046;DHT22;54657;52.022;5.534;2023-08-20T13:31:17;27.80;64.40
65046;DHT22;54657;52.022;5.534;2023-08-20T13:33:43;27.90;64.40
65046;DHT22;54657;52.022;5.534;2023-08-20T13:36:08;27.90;64.20
65046;DHT22;54657;52.022;5.534;2023-08-20T13:38:34;28.00;64.20
65046;DHT22;54657;52.022;5.534;2023-08-20T13:40:59;28.00;64.20
65046;DHT22;54657;52.022;5.534;2023-08-20T13:43:25;27.90;64.10
65046;DHT22;54657;52.022;5.534;2023-08-20T13:45:51;27.70;64.20
65046;DHT22;54657;52.022;5.534;2023-08-20T13:48:16;27.60;64.40
65046;DHT22;54657;52.022;5.534;2023-08-20T13:50:42;27.50;64.70
65046;DHT22;54657;52.022;5.534;2023-08-20T13:53:07;27.40;64.90
65046;DHT22;54657;52.022;5.534;2023-08-20T13:55:34;27.20;64.60
65046;DHT22;54657;52.022;5.534;2023-08-20T13:57:59;27.20;64.80
65046;DHT22;54657;52.022;5.534;2023-08-20T14:00:25;27.00;64.60
65046;DHT22;54657;52.022;5.534;2023-08-20T14:02:50;27.00;64.80
65046;DHT22;54657;52.022;5.534;2023-08-20T14:05:16;27.00;64.80
65046;DHT22;54657;52.022;5.534;2023-08-20T14:07:42;27.00;64.70
65046;DHT22;54657;52.022;5.534;2023-08-20T14:10:08;27.00;64.50
65046;DHT22;54657;52.022;5.534;2023-08-20T14:12:34;27.00;64.70
65046;DHT22;54657;52.022;5.534;2023-08-20T14:14:59;27.00;64.50
65046;DHT22;54657;52.022;5.534;2023-08-20T14:17:25;27.00;64.70
65046;DHT22;54657;52.022;5.534;2023-08-20T14:19:51;26.90;64.80
65046;DHT22;54657;52.022;5.534;2023-08-20T14:22:17;27.10;65.10
65046;DHT22;54657;52.022;5.534;2023-08-20T14:24:43;27.20;64.60
65046;DHT22;54657;52.022;5.534;2023-08-20T14:27:09;27.20;64.70
65046;DHT22;54657;52.022;5.534;2023-08-20T14:29:35;27.30;64.50
65046;DHT22;54657;52.022;5.534;2023-08-20T14:32:01;27.30;64.50
65046;DHT22;54657;52.022;5.534;2023-08-20T14:34:26;27.40;64.50
65046;DHT22;54657;52.022;5.534;2023-08-20T14:36:52;27.50;64.10
65046;DHT22;54657;52.022;5.534;2023-08-20T14:39:17;27.50;63.50
65046;DHT22;54657;52.022;5.534;2023-08-20T14:41:43;27.50;63.80
65046;DHT22;54657;52.022;5.534;2023-08-20T14:44:09;27.60;63.60
65046;DHT22;54657;52.022;5.534;2023-08-20T14:46:34;27.60;63.80
65046;DHT22;54657;52.022;5.534;2023-08-20T14:49:00;27.60;63.30
65046;DHT22;54657;52.022;5.534;2023-08-20T14:51:25;27.70;63.20
65046;DHT22;54657;52.022;5.534;2023-08-20T14:53:51;27.70;63.20
65046;DHT22;54657;52.022;5.534;2023-08-20T14:56:16;27.70;63.40
65046;DHT22;54657;52.022;5.534;2023-08-20T14:58:42;27.70;63.20
65046;DHT22;54657;52.022;5.534;2023-08-20T15:01:08;27.60;62.60
65046;DHT22;54657;52.022;5.534;2023-08-20T15:03:34;27.50;62.60
65046;DHT22;54657;52.022;5.534;2023-08-20T15:05:59;27.50;62.60
65046;DHT22;54657;52.022;5.534;2023-08-20T15:08:25;27.50;62.80
65046;DHT22;54657;52.022;5.534;2023-08-20T15:11:02;27.40;63.30
65046;DHT22;54657;52.022;5.534;2023-08-20T15:16:55;27.10;63.20
65046;DHT22;54657;52.022;5.534;2023-08-20T15:19:21;27.10;62.50
65046;DHT22;54657;52.022;5.534;2023-08-20T15:21:47;27.00;64.00
65046;DHT22;54657;52.022;5.534;2023-08-20T15:24:12;27.00;64.00
65046;DHT22;54657;52.022;5.534;2023-08-20T15:26:38;26.90;64.10
65046;DHT22;54657;52.022;5.534;2023-08-20T15:29:03;26.90;63.90
65046;DHT22;54657;52.022;5.534;2023-08-20T15:31:30;26.80;64.00
65046;DHT22;54657;52.022;5.534;2023-08-20T15:33:55;26.70;64.10
65046;DHT22;54657;52.022;5.534;2023-08-20T15:36:22;26.60;64.10
65046;DHT22;54657;52.022;5.534;2023-08-20T15:38:48;26.60;64.70
65046;DHT22;54657;52.022;5.534;2023-08-20T15:41:14;26.50;64.30
65046;DHT22;54657;52.022;5.534;2023-08-20T15:43:41;26.40;64.20
65046;DHT22;54657;52.022;5.534;2023-08-20T15:46:06;26.30;64.60